sensor_id;sensor_type;location;lat;lon;timestamp;pressure;altitude;pressure_sealevel;temperature;humidity
49030;BME280;43337;52.070;4.508;2022-08-21T00:01:41;101784.72;;;18.07;70.33
49030;BME280;43337;52.070;4.508;2022-08-21T00:04:07;101803.94;;;18.12;70.57
49030;BME280;43337;52.070;4.508;2022-08-21T00:06:33;101783.25;;;18.01;70.69
49030;BME280;43337;52.070;4.508;2022-08-21T00:09:00;101778.59;;;18.04;70.58
49030;BME280;43337;52.070;4.508;2022-08-21T00:11:26;101785.63;;;18.05;70.88
49030;BME280;43337;52.070;4.508;2022-08-21T00:13:52;101760.84;;;17.89;70.82
49030;BME280;43337;52.070;4.508;2022-08-21T00:16:18;101792.50;;;18.10;70.85
49030;BME280;43337;52.070;4.508;2022-08-21T00:18:43;101756.56;;;17.87;70.82
49030;BME280;43337;52.070;4.508;2022-08-21T00:21:11;101777.06;;;18.00;71.10
49030;BME280;43337;52.070;4.508;2022-08-21T00:23:37;101798.78;;;18.09;71.13
49030;BME280;43337;52.070;4.508;2022-08-21T00:26:03;101785.63;;;18.05;71.38
49030;BME280;43337;52.070;4.508;2022-08-21T00:28:28;101795.28;;;18.08;71.49
49030;BME280;43337;52.070;4.508;2022-08-21T00:30:54;101788.41;;;18.04;71.52
49030;BME280;43337;52.070;4.508;2022-08-21T00:33:19;101783.34;;;17.99;71.56
49030;BME280;43337;52.070;4.508;2022-08-21T00:35:44;101785.06;;;18.00;71.46
49030;BME280;43337;52.070;4.508;2022-08-21T00:38:11;101762.31;;;17.79;71.47
49030;BME280;43337;52.070;4.508;2022-08-21T00:43:13;101773.81;;;17.95;71.60
49030;BME280;43337;52.070;4.508;2022-08-21T00:45:39;101789.53;;;18.00;71.82
49030;BME280;43337;52.070;4.508;2022-08-21T00:48:05;101756.75;;;17.84;71.98
49030;BME280;43337;52.070;4.508;2022-08-21T00:50:33;101770.81;;;17.86;71.89
49030;BME280;43337;52.070;4.508;2022-08-21T00:53:01;101783.53;;;17.96;71.94
49030;BME280;43337;52.070;4.508;2022-08-21T00:55:28;101770.66;;;17.89;72.12
49030;BME280;43337;52.070;4.508;2022-08-21T00:57:56;101784.66;;;17.92;72.04
49030;BME280;43337;52.070;4.508;2022-08-21T01:00:29;101739.13;;;17.65;72.06
49030;BME280;43337;52.070;4.508;2022-08-21T01:02:57;101784.84;;;17.89;72.41
49030;BME280;43337;52.070;4.508;2022-08-21T01:05:23;101781.38;;;17.87;72.27
49030;BME280;43337;52.070;4.508;2022-08-21T01:07:48;101739.47;;;17.59;72.44
49030;BME280;43337;52.070;4.508;2022-08-21T01:10:14;101779.00;;;17.83;72.57
49030;BME280;43337;52.070;4.508;2022-08-21T01:12:40;101757.50;;;17.70;72.60
49030;BME280;43337;52.070;4.508;2022-08-21T01:15:07;101753.31;;;17.66;72.55
49030;BME280;43337;52.070;4.508;2022-08-21T01:17:33;101769.00;;;17.70;72.67
49030;BME280;43337;52.070;4.508;2022-08-21T01:20:03;101765.66;;;17.67;72.75
49030;BME280;43337;52.070;4.508;2022-08-21T01:22:29;101759.81;;;17.60;72.79
49030;BME280;43337;52.070;4.508;2022-08-21T01:24:55;101752.97;;;17.56;72.82
49030;BME280;43337;52.070;4.508;2022-08-21T01:27:20;101768.50;;;17.64;72.68
49030;BME280;43337;52.070;4.508;2022-08-21T01:29:56;101773.75;;;17.65;72.70
49030;BME280;43337;52.070;4.508;2022-08-21T01:32:23;101764.50;;;17.56;72.57
49030;BME280;43337;52.070;4.508;2022-08-21T01:34:50;101770.41;;;17.62;72.66
49030;BME280;43337;52.070;4.508;2022-08-21T01:37:17;101770.56;;;17.58;72.62
49030;BME280;43337;52.070;4.508;2022-08-21T01:39:44;101754.00;;;17.53;72.68
49030;BME280;43337;52.070;4.508;2022-08-21T01:42:10;101756.50;;;17.56;72.47
49030;BME280;43337;52.070;4.508;2022-08-21T01:44:36;101766.72;;;17.48;72.49
49030;BME280;43337;52.070;4.508;2022-08-21T01:47:04;101772.66;;;17.53;72.60
49030;BME280;43337;52.070;4.508;2022-08-21T01:49:30;101760.34;;;17.51;72.52
49030;BME280;43337;52.070;4.508;2022-08-21T01:51:55;101762.44;;;17.46;72.63
49030;BME280;43337;52.070;4.508;2022-08-21T01:54:21;101761.38;;;17.48;72.65
49030;BME280;43337;52.070;4.508;2022-08-21T01:56:48;101744.50;;;17.33;72.57
49030;BME280;43337;52.070;4.508;2022-08-21T01:59:15;101761.75;;;17.42;72.74
49030;BME280;43337;52.070;4.508;2022-08-21T02:01:40;101731.69;;;17.24;72.77
49030;BME280;43337;52.070;4.508;2022-08-21T02:04:07;101756.69;;;17.38;72.87
49030;BME280;43337;52.070;4.508;2022-08-21T02:06:33;101743.44;;;17.36;72.87
49030;BME280;43337;52.070;4.508;2022-08-21T02:09:00;101739.41;;;17.29;72.80
49030;BME280;43337;52.070;4.508;2022-08-21T02:11:25;101719.50;;;17.20;72.89
49030;BME280;43337;52.070;4.508;2022-08-21T02:13:50;101728.06;;;17.25;73.00
49030;BME280;43337;52.070;4.508;2022-08-21T02:16:16;101738.50;;;17.30;73.07
49030;BME280;43337;52.070;4.508;2022-08-21T02:18:42;101738.66;;;17.27;73.21
49030;BME280;43337;52.070;4.508;2022-08-21T02:21:08;101742.06;;;17.29;73.25
49030;BME280;43337;52.070;4.508;2022-08-21T02:23:33;101739.69;;;17.24;73.14
49030;BME280;43337;52.070;4.508;2022-08-21T02:26:01;101737.00;;;17.24;73.18
49030;BME280;43337;52.070;4.508;2022-08-21T02:28:27;101739.78;;;17.23;73.30
49030;BME280;43337;52.070;4.508;2022-08-21T02:30:54;101738.81;;;17.24;73.23
49030;BME280;43337;52.070;4.508;2022-08-21T02:33:20;101740.63;;;17.23;73.36
49030;BME280;43337;52.070;4.508;2022-08-21T02:35:47;101747.81;;;17.21;73.31
49030;BME280;43337;52.070;4.508;2022-08-21T02:38:15;101741.66;;;17.21;73.33
49030;BME280;43337;52.070;4.508;2022-08-21T02:40:44;101737.28;;;17.20;73.39
49030;BME280;43337;52.070;4.508;2022-08-21T02:43:10;101725.34;;;17.11;73.63
49030;BME280;43337;52.070;4.508;2022-08-21T02:45:36;101726.97;;;17.14;73.56
49030;BME280;43337;52.070;4.508;2022-08-21T02:48:06;101737.59;;;17.14;73.60
49030;BME280;43337;52.070;4.508;2022-08-21T02:50:44;101718.66;;;17.04;73.39
49030;BME280;43337;52.070;4.508;2022-08-21T02:53:12;101731.69;;;17.08;73.71
49030;BME280;43337;52.070;4.508;2022-08-21T02:55:43;101724.22;;;16.99;73.82
49030;BME280;43337;52.070;4.508;2022-08-21T02:58:09;101720.78;;;16.97;74.01
49030;BME280;43337;52.070;4.508;2022-08-21T03:00:35;101678.69;;;16.72;73.85
49030;BME280;43337;52.070;4.508;2022-08-21T03:03:02;101678.91;;;16.68;74.08
49030;BME280;43337;52.070;4.508;2022-08-21T03:05:29;101731.53;;;16.96;74.11
49030;BME280;43337;52.070;4.508;2022-08-21T03:07:56;101686.91;;;16.68;74.37
49030;BME280;43337;52.070;4.508;2022-08-21T03:10:23;101683.31;;;16.69;74.08
49030;BME280;43337;52.070;4.508;2022-08-21T03:12:49;101707.78;;;16.75;74.40
49030;BME280;43337;52.070;4.508;2022-08-21T03:15:18;101695.50;;;16.73;74.67
49030;BME280;43337;52.070;4.508;2022-08-21T03:17:45;101701.63;;;16.75;74.30
49030;BME280;43337;52.070;4.508;2022-08-21T03:20:13;101717.16;;;16.82;74.62
49030;BME280;43337;52.070;4.508;2022-08-21T03:22:39;101707.88;;;16.74;74.65
49030;BME280;43337;52.070;4.508;2022-08-21T03:25:06;101714.59;;;16.81;74.87
49030;BME280;43337;52.070;4.508;2022-08-21T03:27:32;101712.88;;;16.80;74.85
49030;BME280;43337;52.070;4.508;2022-08-21T03:29:59;101706.78;;;16.78;74.96
49030;BME280;43337;52.070;4.508;2022-08-21T03:32:24;101691.78;;;16.59;74.84
49030;BME280;43337;52.070;4.508;2022-08-21T03:34:50;101696.84;;;16.64;74.94
49030;BME280;43337;52.070;4.508;2022-08-21T03:37:15;101707.88;;;16.74;75.13
49030;BME280;43337;52.070;4.508;2022-08-21T03:39:41;101705.44;;;16.69;75.20
49030;BME280;43337;52.070;4.508;2022-08-21T03:42:07;101699.28;;;16.69;75.19
49030;BME280;43337;52.070;4.508;2022-08-21T03:44:33;101700.19;;;16.68;75.22
49030;BME280;43337;52.070;4.508;2022-08-21T03:47:00;101685.75;;;16.56;75.48
49030;BME280;43337;52.070;4.508;2022-08-21T03:49:25;101702.34;;;16.61;75.45
49030;BME280;43337;52.070;4.508;2022-08-21T03:51:51;101697.78;;;16.63;75.60
49030;BME280;43337;52.070;4.508;2022-08-21T03:54:16;101681.72;;;16.49;75.79
49030;BME280;43337;52.070;4.508;2022-08-21T03:56:42;101676.22;;;16.36;75.60
49030;BME280;43337;52.070;4.508;2022-08-21T03:59:07;101693.94;;;16.53;75.84
49030;BME280;43337;52.070;4.508;2022-08-21T04:01:33;101685.47;;;16.45;75.87
49030;BME280;43337;52.070;4.508;2022-08-21T04:03:59;101705.56;;;16.50;75.76
49030;BME280;43337;52.070;4.508;2022-08-21T04:06:25;101681.53;;;16.36;76.05
49030;BME280;43337;52.070;4.508;2022-08-21T04:08:52;101682.38;;;16.36;76.20
49030;BME280;43337;52.070;4.508;2022-08-21T04:11:18;101707.63;;;16.45;76.31
49030;BME280;43337;52.070;4.508;2022-08-21T04:13:43;101706.03;;;16.41;76.30
49030;BME280;43337;52.070;4.508;2022-08-21T04:16:09;101700.72;;;16.41;76.36
49030;BME280;43337;52.070;4.508;2022-08-21T04:18:34;101677.66;;;16.26;76.36
49030;BME280;43337;52.070;4.508;2022-08-21T04:21:01;101707.00;;;16.40;76.51
49030;BME280;43337;52.070;4.508;2022-08-21T04:23:28;101701.84;;;16.37;76.66
49030;BME280;43337;52.070;4.508;2022-08-21T04:25:55;101715.13;;;16.37;76.51
49030;BME280;43337;52.070;4.508;2022-08-21T04:28:25;101712.56;;;16.35;76.64
49030;BME280;43337;52.070;4.508;2022-08-21T04:30:52;101708.59;;;16.27;76.63
49030;BME280;43337;52.070;4.508;2022-08-21T04:33:18;101704.44;;;16.21;76.84
49030;BME280;43337;52.070;4.508;2022-08-21T04:35:43;101715.47;;;16.31;76.85
49030;BME280;43337;52.070;4.508;2022-08-21T04:38:09;101725.16;;;16.32;76.93
49030;BME280;43337;52.070;4.508;2022-08-21T04:40:34;101727.81;;;16.32;77.07
49030;BME280;43337;52.070;4.508;2022-08-21T04:43:03;101699.31;;;16.18;77.11
49030;BME280;43337;52.070;4.508;2022-08-21T04:45:32;101722.66;;;16.29;77.27
49030;BME280;43337;52.070;4.508;2022-08-21T04:48:00;101727.97;;;16.29;77.42
49030;BME280;43337;52.070;4.508;2022-08-21T04:50:53;101732.50;;;16.27;77.26
49030;BME280;43337;52.070;4.508;2022-08-21T04:53:26;101729.75;;;16.28;77.45
49030;BME280;43337;52.070;4.508;2022-08-21T04:55:58;101716.97;;;16.19;77.49
49030;BME280;43337;52.070;4.508;2022-08-21T04:58:26;101726.50;;;16.23;77.69
49030;BME280;43337;52.070;4.508;2022-08-21T05:00:56;101721.34;;;16.20;77.74
49030;BME280;43337;52.070;4.508;2022-08-21T05:03:22;101744.00;;;16.27;77.69
49030;BME280;43337;52.070;4.508;2022-08-21T05:05:48;101737.03;;;16.25;78.12
49030;BME280;43337;52.070;4.508;2022-08-21T05:08:17;101721.44;;;16.19;78.15
49030;BME280;43337;52.070;4.508;2022-08-21T05:10:43;101726.56;;;16.22;78.33
49030;BME280;43337;52.070;4.508;2022-08-21T05:13:10;101715.31;;;16.17;78.17
49030;BME280;43337;52.070;4.508;2022-08-21T05:15:38;101735.94;;;16.29;78.46
49030;BME280;43337;52.070;4.508;2022-08-21T05:18:03;101742.09;;;16.29;78.57
49030;BME280;43337;52.070;4.508;2022-08-21T05:20:29;101735.88;;;16.30;78.62
49030;BME280;43337;52.070;4.508;2022-08-21T05:22:55;101728.22;;;16.24;78.79
49030;BME280;43337;52.070;4.508;2022-08-21T05:25:20;101743.75;;;16.32;78.82
49030;BME280;43337;52.070;4.508;2022-08-21T05:27:45;101736.03;;;16.27;78.68
49030;BME280;43337;52.070;4.508;2022-08-21T05:30:12;101740.09;;;16.34;78.74
49030;BME280;43337;52.070;4.508;2022-08-21T05:32:38;101724.53;;;16.27;79.09
49030;BME280;43337;52.070;4.508;2022-08-21T05:35:05;101735.06;;;16.28;79.07
49030;BME280;43337;52.070;4.508;2022-08-21T05:37:31;101733.91;;;16.34;79.10
49030;BME280;43337;52.070;4.508;2022-08-21T05:39:57;101724.44;;;16.28;79.26
49030;BME280;43337;52.070;4.508;2022-08-21T05:42:22;101733.72;;;16.37;79.29
49030;BME280;43337;52.070;4.508;2022-08-21T05:44:48;101735.28;;;16.41;79.29
49030;BME280;43337;52.070;4.508;2022-08-21T05:47:13;101725.84;;;16.35;79.22
49030;BME280;43337;52.070;4.508;2022-08-21T05:49:39;101709.03;;;16.35;79.60
49030;BME280;43337;52.070;4.508;2022-08-21T05:52:05;101719.44;;;16.40;79.43
49030;BME280;43337;52.070;4.508;2022-08-21T05:54:30;101704.84;;;16.31;79.50
49030;BME280;43337;52.070;4.508;2022-08-21T05:56:56;101739.03;;;16.54;79.63
49030;BME280;43337;52.070;4.508;2022-08-21T05:59:22;101740.59;;;16.58;79.65
49030;BME280;43337;52.070;4.508;2022-08-21T06:01:48;101731.06;;;16.54;79.69
49030;BME280;43337;52.070;4.508;2022-08-21T06:04:14;101737.41;;;16.68;79.85
49030;BME280;43337;52.070;4.508;2022-08-21T06:06:39;101712.28;;;16.57;79.68
49030;BME280;43337;52.070;4.508;2022-08-21T06:09:05;101726.50;;;16.74;79.75
49030;BME280;43337;52.070;4.508;2022-08-21T06:11:31;101753.97;;;16.90;79.63
49030;BME280;43337;52.070;4.508;2022-08-21T06:13:57;101725.56;;;16.91;79.69
49030;BME280;43337;52.070;4.508;2022-08-21T06:16:23;101745.09;;;17.07;79.71
49030;BME280;43337;52.070;4.508;2022-08-21T06:18:49;101726.53;;;17.05;79.27
49030;BME280;43337;52.070;4.508;2022-08-21T06:21:15;101729.47;;;17.17;79.20
49030;BME280;43337;52.070;4.508;2022-08-21T06:23:41;101714.19;;;17.20;79.21
49030;BME280;43337;52.070;4.508;2022-08-21T06:26:08;101722.41;;;17.31;79.24
49030;BME280;43337;52.070;4.508;2022-08-21T06:28:35;101715.88;;;17.37;79.04
49030;BME280;43337;52.070;4.508;2022-08-21T06:31:10;101722.97;;;17.52;78.94
49030;BME280;43337;52.070;4.508;2022-08-21T06:33:35;101742.66;;;17.66;79.12
49030;BME280;43337;52.070;4.508;2022-08-21T06:36:01;101717.22;;;17.60;78.80
49030;BME280;43337;52.070;4.508;2022-08-21T06:38:26;101726.94;;;17.77;78.82
49030;BME280;43337;52.070;4.508;2022-08-21T06:40:51;101737.03;;;17.86;78.88
49030;BME280;43337;52.070;4.508;2022-08-21T06:43:17;101737.72;;;17.90;78.73
49030;BME280;43337;52.070;4.508;2022-08-21T06:45:43;101743.19;;;18.02;78.85
49030;BME280;43337;52.070;4.508;2022-08-21T06:48:08;101729.97;;;18.01;78.61
49030;BME280;43337;52.070;4.508;2022-08-21T06:50:34;101746.75;;;18.17;78.55
49030;BME280;43337;52.070;4.508;2022-08-21T06:53:07;101743.53;;;18.26;78.55
49030;BME280;43337;52.070;4.508;2022-08-21T06:55:33;101729.16;;;18.29;78.07
49030;BME280;43337;52.070;4.508;2022-08-21T06:57:59;101743.75;;;18.38;78.32
49030;BME280;43337;52.070;4.508;2022-08-21T07:00:25;101735.38;;;18.44;78.19
49030;BME280;43337;52.070;4.508;2022-08-21T07:02:51;101730.69;;;18.47;78.04
49030;BME280;43337;52.070;4.508;2022-08-21T07:05:16;101705.19;;;18.43;78.16
49030;BME280;43337;52.070;4.508;2022-08-21T07:07:42;101710.53;;;18.58;78.09
49030;BME280;43337;52.070;4.508;2022-08-21T07:10:08;101725.13;;;18.81;77.94
49030;BME280;43337;52.070;4.508;2022-08-21T07:12:33;101745.88;;;18.90;77.76
49030;BME280;43337;52.070;4.508;2022-08-21T07:14:59;101716.72;;;18.87;77.65
49030;BME280;43337;52.070;4.508;2022-08-21T07:17:25;101712.81;;;18.92;76.90
49030;BME280;43337;52.070;4.508;2022-08-21T07:19:50;101708.72;;;18.87;77.17
49030;BME280;43337;52.070;4.508;2022-08-21T07:22:18;101734.91;;;19.09;76.94
49030;BME280;43337;52.070;4.508;2022-08-21T07:24:45;101742.59;;;19.13;76.92
49030;BME280;43337;52.070;4.508;2022-08-21T07:27:10;101735.56;;;19.12;76.88
49030;BME280;43337;52.070;4.508;2022-08-21T07:29:35;101741.91;;;19.24;76.99
49030;BME280;43337;52.070;4.508;2022-08-21T07:32:01;101740.56;;;19.31;76.75
49030;BME280;43337;52.070;4.508;2022-08-21T07:34:26;101718.00;;;19.22;76.62
49030;BME280;43337;52.070;4.508;2022-08-21T07:36:52;101743.28;;;19.44;76.53
49030;BME280;43337;52.070;4.508;2022-08-21T07:39:18;101725.94;;;19.37;76.19
49030;BME280;43337;52.070;4.508;2022-08-21T07:41:43;101745.88;;;19.45;76.32
49030;BME280;43337;52.070;4.508;2022-08-21T07:44:08;101700.91;;;19.25;76.08
49030;BME280;43337;52.070;4.508;2022-08-21T07:46:34;101694.41;;;19.29;76.14
49030;BME280;43337;52.070;4.508;2022-08-21T07:48:59;101738.59;;;19.62;76.28
49030;BME280;43337;52.070;4.508;2022-08-21T07:51:26;101746.13;;;19.82;76.07
49030;BME280;43337;52.070;4.508;2022-08-21T07:53:55;101724.16;;;19.91;75.70
49030;BME280;43337;52.070;4.508;2022-08-21T07:56:21;101735.31;;;20.11;75.46
49030;BME280;43337;52.070;4.508;2022-08-21T07:58:47;101729.00;;;20.12;75.21
49030;BME280;43337;52.070;4.508;2022-08-21T08:01:13;101737.03;;;20.24;75.06
49030;BME280;43337;52.070;4.508;2022-08-21T08:03:39;101722.47;;;20.16;74.87
49030;BME280;43337;52.070;4.508;2022-08-21T08:06:05;101743.66;;;20.32;74.74
49030;BME280;43337;52.070;4.508;2022-08-21T08:08:32;101708.34;;;20.14;74.78
49030;BME280;43337;52.070;4.508;2022-08-21T08:10:58;101739.28;;;20.31;74.75
49030;BME280;43337;52.070;4.508;2022-08-21T08:13:24;101742.94;;;20.42;74.06
49030;BME280;43337;52.070;4.508;2022-08-21T08:15:49;101709.75;;;20.32;73.72
49030;BME280;43337;52.070;4.508;2022-08-21T08:18:15;101706.31;;;20.43;73.84
49030;BME280;43337;52.070;4.508;2022-08-21T08:20:41;101702.69;;;20.44;73.83
49030;BME280;43337;52.070;4.508;2022-08-21T08:23:09;101691.13;;;20.56;73.33
49030;BME280;43337;52.070;4.508;2022-08-21T08:25:34;101731.22;;;20.94;73.34
49030;BME280;43337;52.070;4.508;2022-08-21T08:28:00;101730.88;;;21.12;72.50
49030;BME280;43337;52.070;4.508;2022-08-21T08:30:25;101726.66;;;21.20;72.23
49030;BME280;43337;52.070;4.508;2022-08-21T08:32:50;101746.81;;;21.26;71.76
49030;BME280;43337;52.070;4.508;2022-08-21T08:35:16;101716.72;;;21.10;71.30
49030;BME280;43337;52.070;4.508;2022-08-21T08:37:42;101715.44;;;21.15;71.34
49030;BME280;43337;52.070;4.508;2022-08-21T08:40:14;101688.59;;;21.04;71.07
49030;BME280;43337;52.070;4.508;2022-08-21T08:42:42;101722.16;;;21.34;70.84
49030;BME280;43337;52.070;4.508;2022-08-21T08:45:11;101724.34;;;21.53;70.47
49030;BME280;43337;52.070;4.508;2022-08-21T08:47:43;101721.09;;;21.60;70.46
49030;BME280;43337;52.070;4.508;2022-08-21T08:50:19;101718.91;;;21.65;69.99
49030;BME280;43337;52.070;4.508;2022-08-21T08:53:07;101717.81;;;21.68;69.30
49030;BME280;43337;52.070;4.508;2022-08-21T08:55:42;101718.28;;;21.62;68.77
49030;BME280;43337;52.070;4.508;2022-08-21T08:58:27;101716.75;;;21.47;67.96
49030;BME280;43337;52.070;4.508;2022-08-21T09:00:55;101726.97;;;21.41;67.98
49030;BME280;43337;52.070;4.508;2022-08-21T09:03:23;101735.44;;;21.35;67.74
49030;BME280;43337;52.070;4.508;2022-08-21T09:05:55;101743.03;;;21.29;67.91
49030;BME280;43337;52.070;4.508;2022-08-21T09:11:04;101740.59;;;21.13;68.06
49030;BME280;43337;52.070;4.508;2022-08-21T09:19:09;101723.09;;;20.96;67.17
49030;BME280;43337;52.070;4.508;2022-08-21T09:21:44;101731.22;;;20.94;66.89
49030;BME280;43337;52.070;4.508;2022-08-21T09:27:14;101730.38;;;20.94;66.99
49030;BME280;43337;52.070;4.508;2022-08-21T09:29:44;101736.56;;;21.07;66.58
49030;BME280;43337;52.070;4.508;2022-08-21T09:32:30;101740.81;;;21.10;65.07
49030;BME280;43337;52.070;4.508;2022-08-21T09:35:05;101744.13;;;21.13;65.81
49030;BME280;43337;52.070;4.508;2022-08-21T09:37:33;101741.38;;;21.15;65.60
49030;BME280;43337;52.070;4.508;2022-08-21T09:40:00;101749.28;;;21.16;65.35
49030;BME280;43337;52.070;4.508;2022-08-21T09:42:30;101740.91;;;21.21;65.81
49030;BME280;43337;52.070;4.508;2022-08-21T09:45:15;101746.28;;;21.34;65.45
49030;BME280;43337;52.070;4.508;2022-08-21T09:47:42;101734.16;;;21.41;65.26
49030;BME280;43337;52.070;4.508;2022-08-21T09:50:14;101728.66;;;21.66;64.54
49030;BME280;43337;52.070;4.508;2022-08-21T09:52:49;101731.38;;;21.78;64.35
49030;BME280;43337;52.070;4.508;2022-08-21T09:55:38;101737.63;;;21.89;63.47
49030;BME280;43337;52.070;4.508;2022-08-21T09:58:35;101742.13;;;21.89;63.90
49030;BME280;43337;52.070;4.508;2022-08-21T10:01:02;101739.69;;;21.86;63.41
49030;BME280;43337;52.070;4.508;2022-08-21T10:03:28;101733.69;;;21.82;63.47
49030;BME280;43337;52.070;4.508;2022-08-21T10:06:03;101738.69;;;21.76;63.12
49030;BME280;43337;52.070;4.508;2022-08-21T10:08:35;101742.31;;;21.75;63.11
49030;BME280;43337;52.070;4.508;2022-08-21T10:11:05;101721.94;;;21.61;63.09
49030;BME280;43337;52.070;4.508;2022-08-21T10:13:43;101739.88;;;21.72;63.22
49030;BME280;43337;52.070;4.508;2022-08-21T10:16:28;101735.44;;;21.83;63.27
49030;BME280;43337;52.070;4.508;2022-08-21T10:19:12;101741.09;;;22.03;63.17
49030;BME280;43337;52.070;4.508;2022-08-21T10:30:28;101736.09;;;22.78;62.17
49030;BME280;43337;52.070;4.508;2022-08-21T10:33:08;101727.56;;;22.84;62.10
49030;BME280;43337;52.070;4.508;2022-08-21T10:38:45;101733.41;;;22.78;60.81
49030;BME280;43337;52.070;4.508;2022-08-21T10:47:05;101738.91;;;22.54;61.17
49030;BME280;43337;52.070;4.508;2022-08-21T10:49:41;101738.69;;;22.57;61.68
49030;BME280;43337;52.070;4.508;2022-08-21T10:54:54;101737.81;;;22.90;61.53
49030;BME280;43337;52.070;4.508;2022-08-21T10:57:40;101732.44;;;23.13;60.39
49030;BME280;43337;52.070;4.508;2022-08-21T11:00:10;101730.69;;;23.34;61.07
49030;BME280;43337;52.070;4.508;2022-08-21T11:02:42;101717.94;;;23.48;60.27
49030;BME280;43337;52.070;4.508;2022-08-21T11:05:41;101724.34;;;23.68;59.83
49030;BME280;43337;52.070;4.508;2022-08-21T11:08:14;101731.78;;;23.75;59.93
49030;BME280;43337;52.070;4.508;2022-08-21T11:10:45;101749.91;;;23.94;59.43
49030;BME280;43337;52.070;4.508;2022-08-21T11:13:15;101729.59;;;24.01;59.10
49030;BME280;43337;52.070;4.508;2022-08-21T11:21:26;101752.09;;;24.00;57.76
49030;BME280;43337;52.070;4.508;2022-08-21T11:23:54;101746.06;;;23.87;57.55
49030;BME280;43337;52.070;4.508;2022-08-21T11:26:32;101740.44;;;23.79;57.58
49030;BME280;43337;52.070;4.508;2022-08-21T11:29:06;101726.78;;;23.71;57.17
49030;BME280;43337;52.070;4.508;2022-08-21T11:31:44;101750.03;;;23.72;56.29
49030;BME280;43337;52.070;4.508;2022-08-21T11:37:07;101730.34;;;23.60;56.77
49030;BME280;43337;52.070;4.508;2022-08-21T11:40:06;101746.47;;;23.71;56.71
49030;BME280;43337;52.070;4.508;2022-08-21T11:43:12;101751.59;;;23.74;55.98
49030;BME280;43337;52.070;4.508;2022-08-21T11:45:54;101750.34;;;23.78;55.93
49030;BME280;43337;52.070;4.508;2022-08-21T11:51:24;101743.44;;;23.76;55.21
49030;BME280;43337;52.070;4.508;2022-08-21T11:54:17;101744.81;;;23.91;55.06
49030;BME280;43337;52.070;4.508;2022-08-21T11:56:50;101737.25;;;23.85;55.35
49030;BME280;43337;52.070;4.508;2022-08-21T11:59:36;101737.41;;;23.83;55.39
49030;BME280;43337;52.070;4.508;2022-08-21T12:02:09;101735.22;;;23.77;54.86
49030;BME280;43337;52.070;4.508;2022-08-21T12:04:44;101726.78;;;23.71;54.91
49030;BME280;43337;52.070;4.508;2022-08-21T12:07:27;101741.59;;;23.76;55.13
49030;BME280;43337;52.070;4.508;2022-08-21T12:09:56;101746.97;;;23.76;54.06
49030;BME280;43337;52.070;4.508;2022-08-21T12:12:32;101735.25;;;23.66;53.93
49030;BME280;43337;52.070;4.508;2022-08-21T12:15:27;101752.19;;;23.78;53.68
49030;BME280;43337;52.070;4.508;2022-08-21T12:18:05;101742.28;;;23.78;53.57
49030;BME280;43337;52.070;4.508;2022-08-21T12:21:16;101748.81;;;23.97;52.05
49030;BME280;43337;52.070;4.508;2022-08-21T12:24:31;101755.06;;;24.18;53.43
49030;BME280;43337;52.070;4.508;2022-08-21T12:26:46;101752.88;;;24.33;52.24
49030;BME280;43337;52.070;4.508;2022-08-21T12:29:29;101746.09;;;24.50;51.78
49030;BME280;43337;52.070;4.508;2022-08-21T12:32:24;101737.59;;;24.54;50.43
49030;BME280;43337;52.070;4.508;2022-08-21T12:34:53;101739.47;;;24.64;51.13
49030;BME280;43337;52.070;4.508;2022-08-21T12:39:54;101756.75;;;24.92;50.27
49030;BME280;43337;52.070;4.508;2022-08-21T12:42:33;101736.50;;;24.97;49.16
49030;BME280;43337;52.070;4.508;2022-08-21T12:45:14;101740.63;;;25.01;48.07
49030;BME280;43337;52.070;4.508;2022-08-21T12:48:04;101753.41;;;25.09;49.37
49030;BME280;43337;52.070;4.508;2022-08-21T12:53:07;101761.63;;;25.07;48.07
49030;BME280;43337;52.070;4.508;2022-08-21T12:55:34;101723.97;;;24.87;48.08
49030;BME280;43337;52.070;4.508;2022-08-21T12:58:00;101744.31;;;25.00;48.15
49030;BME280;43337;52.070;4.508;2022-08-21T13:00:28;101756.88;;;25.11;47.94
49030;BME280;43337;52.070;4.508;2022-08-21T13:02:55;101762.38;;;25.09;46.99
49030;BME280;43337;52.070;4.508;2022-08-21T13:05:32;101702.94;;;24.71;47.86
49030;BME280;43337;52.070;4.508;2022-08-21T13:07:59;101719.56;;;24.85;47.90
49030;BME280;43337;52.070;4.508;2022-08-21T13:10:31;101763.69;;;25.15;47.01
49030;BME280;43337;52.070;4.508;2022-08-21T13:13:02;101761.97;;;25.14;47.08
49030;BME280;43337;52.070;4.508;2022-08-21T13:15:34;101760.63;;;25.08;46.75
49030;BME280;43337;52.070;4.508;2022-08-21T13:18:02;101732.63;;;24.90;46.53
49030;BME280;43337;52.070;4.508;2022-08-21T13:22:55;101748.78;;;25.11;46.34
49030;BME280;43337;52.070;4.508;2022-08-21T13:25:26;101744.38;;;25.10;46.28
49030;BME280;43337;52.070;4.508;2022-08-21T13:28:06;101762.84;;;25.24;46.51
49030;BME280;43337;52.070;4.508;2022-08-21T13:30:32;101715.09;;;25.05;47.29
49030;BME280;43337;52.070;4.508;2022-08-21T13:33:01;101759.22;;;25.45;47.52
49030;BME280;43337;52.070;4.508;2022-08-21T13:35:36;101737.34;;;25.48;47.39
49030;BME280;43337;52.070;4.508;2022-08-21T13:38:03;101759.78;;;25.58;47.26
49030;BME280;43337;52.070;4.508;2022-08-21T13:40:37;101751.28;;;25.53;47.71
49030;BME280;43337;52.070;4.508;2022-08-21T13:43:11;101749.69;;;25.41;47.68
49030;BME280;43337;52.070;4.508;2022-08-21T13:45:38;101758.06;;;25.38;47.61
49030;BME280;43337;52.070;4.508;2022-08-21T13:48:04;101721.16;;;24.98;48.12
49030;BME280;43337;52.070;4.508;2022-08-21T13:50:32;101757.50;;;25.03;48.10
49030;BME280;43337;52.070;4.508;2022-08-21T13:53:05;101745.66;;;24.85;48.32
49030;BME280;43337;52.070;4.508;2022-08-21T13:55:38;101757.44;;;24.84;48.50